Terminal Aerodrome Forecast
Issued by NWS

Home | Current Version | Previous Version | Text Only | Print | Product List | Glossary On
Versions: 1 2 3 4 5 6 7 8 9 10 11 12 13 14 15 16 17 18 19 20
000
FTUS42 KFFC 252330
TAFPDK
TAF
KPDK 252330Z 2600/2624 25003KT P6SM VCSH OVC080
     FM260400 01003KT 4SM -SHRA SCT012 OVC060
     FM260700 06004KT 3SM SHRA OVC007
     FM261400 01005KT 6SM SHRA SCT008 BKN012
     FM261600 03005KT P6SM SCT012 BKN025
     FM262000 32005KT P6SM BKN035
     FM262300 32005KT P6SM SCT060=

USA.gov is the U.S. government's official web portal to all federal, state and local government web resources and services.